Time;durP1;ratioP1;P1;durP2;ratioP2;P2;SDS_P1;SDS_P2;PMS_P1;PMS_P2;Temp;Humidity;BMP_temperature;BMP_pressure;BME280_temperature;BME280_humidity;BME280_pressure;Samples;Min_cycle;Max_cycle;Signal;HPM_P1;HPM_P2
2022/10/07 00:00:51;;;;;;;;;;;7.50;99.90;;;;;;5079336;28;19964;-84
2022/10/07 00:03:18;;;;;;;;;;;7.50;99.90;;;;;;5089784;28;20354;-84
2022/10/07 00:05:44;;;;;;;;;;;7.40;99.90;;;;;;5087728;28;20704;-85
2022/10/07 00:08:09;;;;;;;;;;;7.40;99.90;;;;;;5067907;28;19911;-84
2022/10/07 00:10:36;;;;;;;;;;;7.30;99.90;;;;;;5077628;28;19923;-83
2022/10/07 00:13:01;;;;;;;;;;;7.20;99.90;;;;;;5082699;28;20013;-84
2022/10/07 00:15:27;;;;;;;;;;;7.10;99.90;;;;;;5083999;28;19908;-85
2022/10/07 00:17:53;;;;;;;;;;;7.10;99.90;;;;;;5078739;28;20757;-85
2022/10/07 00:20:18;;;;;;;;;;;7.20;99.90;;;;;;5107873;28;20000;-84
2022/10/07 00:22:44;;;;;;;;;;;7.30;99.90;;;;;;5063297;28;20248;-84
2022/10/07 00:25:09;;;;;;;;;;;7.40;99.90;;;;;;5081705;28;19992;-84
2022/10/07 00:27:36;;;;;;;;;;;7.50;99.90;;;;;;5085389;28;19915;-84
2022/10/07 00:30:01;;;;;;;;;;;7.60;99.90;;;;;;5069763;28;19912;-84
2022/10/07 00:32:27;;;;;;;;;;;7.70;99.90;;;;;;5076351;28;19908;-84
2022/10/07 00:34:52;;;;;;;;;;;7.80;99.90;;;;;;5078550;28;19908;-84
2022/10/07 00:37:18;;;;;;;;;;;7.90;99.90;;;;;;5085618;28;19958;-84
2022/10/07 00:39:44;;;;;;;;;;;8.00;99.90;;;;;;5074585;28;19995;-84
2022/10/07 00:42:11;;;;;;;;;;;8.10;99.90;;;;;;5064645;28;19924;-84
2022/10/07 00:44:38;;;;;;;;;;;8.20;99.90;;;;;;5085260;28;19908;-84
2022/10/07 00:47:23;;;;;;;;;;;8.40;99.90;;;;;;5097393;28;19908;-84
2022/10/07 00:50:01;;;;;;;;;;;8.40;99.90;;;;;;5104512;28;19977;-84
2022/10/07 00:52:29;;;;;;;;;;;8.60;99.90;;;;;;5069301;28;20010;-84
2022/10/07 00:54:55;;;;;;;;;;;8.70;99.90;;;;;;5099835;28;19974;-84
2022/10/07 00:57:22;;;;;;;;;;;8.70;99.90;;;;;;5074087;28;19977;-84
2022/10/07 00:59:47;;;;;;;;;;;8.80;99.90;;;;;;5081978;28;19938;-84
2022/10/07 01:02:14;;;;;;;;;;;8.90;99.90;;;;;;5089609;28;19907;-85
2022/10/07 01:04:41;;;;;;;;;;;9.00;99.90;;;;;;5081298;28;19995;-85
2022/10/07 01:07:06;;;;;;;;;;;9.10;99.90;;;;;;5074628;28;20070;-85
2022/10/07 01:09:32;;;;;;;;;;;9.20;99.90;;;;;;5083271;28;19954;-85
2022/10/07 01:12:01;;;;;;;;;;;9.30;99.90;;;;;;5082460;28;20390;-85
2022/10/07 01:14:38;;;;;;;;;;;9.50;99.90;;;;;;5085386;28;19911;-84
2022/10/07 01:17:04;;;;;;;;;;;9.60;99.90;;;;;;5066729;28;20378;-84
2022/10/07 01:23:01;;;;;;;;;;;9.90;99.90;;;;;;5087842;28;20373;-84
2022/10/07 01:25:35;;;;;;;;;;;10.20;99.90;;;;;;5074328;28;19908;-85
2022/10/07 01:28:05;;;;;;;;;;;10.30;99.90;;;;;;5068421;28;19999;-85
2022/10/07 01:30:34;;;;;;;;;;;10.30;99.90;;;;;;5087044;28;19915;-85
2022/10/07 01:33:03;;;;;;;;;;;10.40;99.90;;;;;;5070027;28;19904;-84
2022/10/07 01:35:32;;;;;;;;;;;10.40;99.90;;;;;;5087651;28;20355;-85
2022/10/07 01:38:00;;;;;;;;;;;10.40;99.90;;;;;;5080669;28;19908;-84
2022/10/07 01:40:30;;;;;;;;;;;10.40;99.90;;;;;;5087879;28;19911;-85
2022/10/07 01:42:56;;;;;;;;;;;10.40;99.90;;;;;;5073705;28;24074;-84
2022/10/07 01:45:23;;;;;;;;;;;10.40;99.90;;;;;;5065545;28;20553;-85
2022/10/07 01:47:50;;;;;;;;;;;10.30;99.90;;;;;;5089690;28;19956;-84
2022/10/07 01:50:17;;;;;;;;;;;10.30;99.90;;;;;;5068045;28;19908;-85
2022/10/07 01:52:43;;;;;;;;;;;10.20;99.90;;;;;;5089059;28;19960;-84
2022/10/07 01:55:28;;;;;;;;;;;10.20;99.90;;;;;;5080807;28;19946;-84
2022/10/07 01:57:54;;;;;;;;;;;10.10;99.90;;;;;;5091046;28;19908;-85
2022/10/07 02:00:20;;;;;;;;;;;10.10;99.90;;;;;;5084219;28;19914;-84
2022/10/07 02:03:04;;;;;;;;;;;9.90;99.90;;;;;;5105634;28;25142;-85
2022/10/07 02:05:36;;;;;;;;;;;9.90;99.90;;;;;;5076480;28;20011;-84
2022/10/07 02:08:20;;;;;;;;;;;9.80;99.90;;;;;;5090081;28;19987;-85
2022/10/07 02:10:46;;;;;;;;;;;9.90;99.90;;;;;;5075184;28;19911;-85
2022/10/07 02:13:16;;;;;;;;;;;9.90;99.90;;;;;;5100261;28;20477;-84
2022/10/07 02:15:59;;;;;;;;;;;10.00;99.90;;;;;;5080909;28;19915;-84
2022/10/07 02:18:26;;;;;;;;;;;10.10;99.90;;;;;;5063538;28;20059;-85
2022/10/07 02:20:53;;;;;;;;;;;10.10;99.90;;;;;;5087771;28;19935;-84
2022/10/07 02:23:41;;;;;;;;;;;10.10;99.90;;;;;;5064190;28;20506;-85
2022/10/07 02:26:09;;;;;;;;;;;10.10;99.90;;;;;;5069948;28;19920;-85
2022/10/07 02:28:35;;;;;;;;;;;10.20;99.90;;;;;;5081193;28;24071;-84
2022/10/07 02:31:02;;;;;;;;;;;10.30;99.90;;;;;;5090303;28;19912;-84
2022/10/07 02:33:31;;;;;;;;;;;10.30;99.90;;;;;;5081998;28;24057;-85
2022/10/07 02:36:01;;;;;;;;;;;10.30;99.90;;;;;;5091101;28;20045;-84
2022/10/07 02:38:26;;;;;;;;;;;10.40;99.90;;;;;;5084405;28;19920;-84
2022/10/07 02:41:04;;;;;;;;;;;10.50;99.90;;;;;;5090955;28;19904;-85
2022/10/07 02:43:44;;;;;;;;;;;10.50;99.90;;;;;;5076254;28;19908;-84
2022/10/07 02:46:21;;;;;;;;;;;10.50;99.90;;;;;;5073171;28;19993;-85
2022/10/07 02:48:53;;;;;;;;;;;10.50;99.90;;;;;;5103164;28;19915;-84
2022/10/07 02:51:21;;;;;;;;;;;10.50;99.90;;;;;;5085338;28;19916;-84
2022/10/07 02:53:48;;;;;;;;;;;10.50;99.90;;;;;;5075822;28;19911;-85
2022/10/07 02:56:16;;;;;;;;;;;10.60;99.90;;;;;;5083560;28;19908;-85
2022/10/07 02:58:44;;;;;;;;;;;10.50;99.90;;;;;;5071074;28;19908;-84
2022/10/07 03:01:12;;;;;;;;;;;10.40;99.90;;;;;;5067076;28;20022;-85
2022/10/07 03:03:39;;;;;;;;;;;10.30;99.90;;;;;;5071506;28;24167;-85
2022/10/07 03:06:06;;;;;;;;;;;10.20;99.90;;;;;;5068715;28;19914;-85
2022/10/07 03:08:34;;;;;;;;;;;10.20;99.90;;;;;;5078843;28;20603;-85
2022/10/07 03:11:00;;;;;;;;;;;10.20;99.90;;;;;;5083999;28;19920;-84
2022/10/07 03:13:28;;;;;;;;;;;10.10;99.90;;;;;;5085148;28;19915;-84
2022/10/07 03:15:58;;;;;;;;;;;10.30;99.90;;;;;;5060943;28;19908;-84
2022/10/07 03:18:27;;;;;;;;;;;10.40;99.90;;;;;;5085746;28;19927;-84
2022/10/07 03:21:12;;;;;;;;;;;10.40;99.90;;;;;;5082042;28;24105;-85
2022/10/07 03:23:39;;;;;;;;;;;10.50;99.90;;;;;;5088001;28;19908;-85
2022/10/07 03:26:05;;;;;;;;;;;10.50;99.90;;;;;;5087898;28;19959;-85
2022/10/07 03:28:34;;;;;;;;;;;10.50;99.90;;;;;;5079886;28;24108;-85
2022/10/07 03:31:04;;;;;;;;;;;10.50;99.90;;;;;;5088786;28;19919;-85
2022/10/07 03:33:30;;;;;;;;;;;10.50;99.90;;;;;;5063941;28;19923;-85
2022/10/07 03:35:55;;;;;;;;;;;10.40;99.90;;;;;;5080645;28;19912;-85
2022/10/07 03:38:21;;;;;;;;;;;10.30;99.90;;;;;;5103278;28;19951;-84
2022/10/07 03:40:48;;;;;;;;;;;10.30;99.90;;;;;;5081204;28;19904;-85
2022/10/07 03:43:13;;;;;;;;;;;10.40;99.90;;;;;;5072687;28;19915;-85
2022/10/07 03:45:43;;;;;;;;;;;10.50;99.90;;;;;;5080404;28;19908;-85
2022/10/07 03:48:09;;;;;;;;;;;10.50;99.90;;;;;;5073510;28;24055;-85
2022/10/07 03:50:36;;;;;;;;;;;10.60;99.90;;;;;;5091177;28;19911;-85
2022/10/07 03:53:02;;;;;;;;;;;10.60;99.90;;;;;;5073397;28;19908;-85
2022/10/07 03:55:28;;;;;;;;;;;10.60;99.90;;;;;;5069368;28;20326;-85
2022/10/07 03:57:53;;;;;;;;;;;10.60;99.90;;;;;;5090046;28;19998;-85
2022/10/07 04:00:21;;;;;;;;;;;10.70;99.90;;;;;;5088197;28;19998;-85
2022/10/07 04:02:51;;;;;;;;;;;10.60;99.90;;;;;;5070494;28;20031;-84
2022/10/07 04:05:18;;;;;;;;;;;10.70;99.90;;;;;;5103019;28;20003;-85
2022/10/07 04:07:45;;;;;;;;;;;10.60;99.90;;;;;;5087591;28;19908;-85
2022/10/07 04:10:12;;;;;;;;;;;10.50;99.90;;;;;;5089807;28;19912;-85
2022/10/07 04:12:40;;;;;;;;;;;10.60;99.90;;;;;;5089998;28;19916;-85
2022/10/07 04:15:06;;;;;;;;;;;10.60;99.90;;;;;;5068678;28;19908;-85
2022/10/07 04:17:31;;;;;;;;;;;10.60;99.90;;;;;;5107478;28;19986;-84
2022/10/07 04:19:57;;;;;;;;;;;10.70;99.90;;;;;;5064149;28;19915;-84
2022/10/07 04:22:23;;;;;;;;;;;10.70;99.90;;;;;;5083477;28;19908;-85
2022/10/07 04:27:34;;;;;;;;;;;10.80;99.90;;;;;;5078671;28;20023;-85
2022/10/07 04:30:00;;;;;;;;;;;10.80;99.90;;;;;;5088146;28;20465;-85
2022/10/07 04:32:26;;;;;;;;;;;10.80;99.90;;;;;;5083248;28;19960;-85
2022/10/07 04:34:51;;;;;;;;;;;10.80;99.90;;;;;;5100195;28;20728;-85
2022/10/07 04:37:18;;;;;;;;;;;10.80;99.90;;;;;;5067641;28;19974;-85
2022/10/07 04:39:43;;;;;;;;;;;10.80;99.90;;;;;;5105887;28;19968;-85
2022/10/07 04:43:17;;;;;;;;;;;10.60;99.90;;;;;;5073174;28;19912;-85
2022/10/07 04:44:55;;;;;;;;;;;10.70;99.90;;;;;;5081799;28;24083;-85
2022/10/07 04:47:20;;;;;;;;;;;10.60;99.90;;;;;;5088538;28;19908;-85
2022/10/07 04:49:47;;;;;;;;;;;10.60;99.90;;;;;;5059172;28;20703;-85
2022/10/07 04:52:13;;;;;;;;;;;10.60;99.90;;;;;;5070840;28;20287;-84
2022/10/07 04:54:40;;;;;;;;;;;10.60;99.90;;;;;;5102331;28;19913;-85
2022/10/07 04:57:08;;;;;;;;;;;10.50;99.90;;;;;;5062718;28;24136;-85
2022/10/07 04:59:35;;;;;;;;;;;10.50;99.90;;;;;;5083788;28;19918;-85
2022/10/07 05:02:01;;;;;;;;;;;10.50;99.90;;;;;;5093224;28;20381;-85
2022/10/07 05:04:28;;;;;;;;;;;10.40;99.90;;;;;;5073556;28;19927;-85
2022/10/07 05:06:55;;;;;;;;;;;10.40;99.90;;;;;;5107293;28;20527;-85
2022/10/07 05:09:22;;;;;;;;;;;10.30;99.90;;;;;;5087525;28;20306;-84
2022/10/07 05:11:50;;;;;;;;;;;10.20;99.90;;;;;;5079287;28;19919;-85
2022/10/07 05:14:20;;;;;;;;;;;10.00;99.90;;;;;;5082566;28;24176;-85
2022/10/07 05:16:50;;;;;;;;;;;9.80;99.90;;;;;;5106230;28;19908;-85
2022/10/07 05:19:16;;;;;;;;;;;9.60;99.90;;;;;;5084083;28;20317;-85
2022/10/07 05:21:43;;;;;;;;;;;9.40;99.90;;;;;;5098375;28;19919;-84
2022/10/07 05:24:08;;;;;;;;;;;9.30;99.90;;;;;;5090095;28;24056;-85
2022/10/07 05:26:36;;;;;;;;;;;9.10;99.90;;;;;;5084727;28;19908;-85
2022/10/07 05:29:05;;;;;;;;;;;8.90;99.90;;;;;;5082638;28;19915;-84
2022/10/07 05:31:37;;;;;;;;;;;8.80;99.90;;;;;;5079049;28;19956;-84
2022/10/07 05:34:03;;;;;;;;;;;8.60;99.90;;;;;;5084063;28;19915;-85
2022/10/07 05:36:29;;;;;;;;;;;8.50;99.90;;;;;;5088129;28;20607;-88
2022/10/07 05:38:57;;;;;;;;;;;8.50;99.90;;;;;;5085838;28;19913;-88
2022/10/07 05:41:27;;;;;;;;;;;8.40;99.90;;;;;;5084062;28;19908;-88
2022/10/07 05:43:54;;;;;;;;;;;8.40;99.90;;;;;;5063383;28;20687;-88
2022/10/07 05:46:20;;;;;;;;;;;8.40;99.90;;;;;;5082406;28;20002;-88
2022/10/07 05:48:51;;;;;;;;;;;8.40;99.90;;;;;;5072380;28;19912;-88
2022/10/07 05:51:19;;;;;;;;;;;8.40;99.90;;;;;;5075704;28;19912;-88
2022/10/07 05:53:45;;;;;;;;;;;8.30;99.90;;;;;;5094000;28;19908;-88
2022/10/07 05:56:13;;;;;;;;;;;8.30;99.90;;;;;;5085743;28;19990;-88
2022/10/07 05:58:39;;;;;;;;;;;8.20;99.90;;;;;;5082694;28;20007;-88
2022/10/07 06:01:12;;;;;;;;;;;8.20;99.90;;;;;;5077113;28;19908;-88
2022/10/07 06:03:38;;;;;;;;;;;8.20;99.90;;;;;;5108179;28;20580;-88
2022/10/07 06:06:04;;;;;;;;;;;8.20;99.90;;;;;;5087617;28;19957;-88
2022/10/07 06:08:29;;;;;;;;;;;8.20;99.90;;;;;;5108909;28;19908;-88
2022/10/07 06:13:49;;;;;;;;;;;8.20;99.90;;;;;;5124025;27;19908;-88
2022/10/07 06:16:15;;;;;;;;;;;8.30;99.90;;;;;;5087415;28;19904;-88
2022/10/07 06:18:41;;;;;;;;;;;8.30;99.90;;;;;;5090102;28;19912;-88
2022/10/07 06:21:07;;;;;;;;;;;8.30;99.90;;;;;;5075591;28;24075;-88
2022/10/07 06:23:33;;;;;;;;;;;8.40;99.90;;;;;;5089543;28;19908;-88
2022/10/07 06:26:04;;;;;;;;;;;8.50;99.90;;;;;;5080410;28;20312;-88
2022/10/07 06:28:32;;;;;;;;;;;8.60;99.90;;;;;;5083142;28;19995;-88
2022/10/07 06:30:58;;;;;;;;;;;8.80;99.90;;;;;;5091215;28;20331;-88
2022/10/07 06:33:23;;;;;;;;;;;8.90;99.90;;;;;;5067722;28;19974;-87
2022/10/07 06:35:53;;;;;;;;;;;9.10;99.90;;;;;;5090691;28;19957;-88
2022/10/07 06:38:19;;;;;;;;;;;9.30;99.90;;;;;;5069610;28;19934;-88
2022/10/07 06:40:55;;;;;;;;;;;9.50;99.90;;;;;;5091037;28;19904;-88
2022/10/07 06:43:21;;;;;;;;;;;9.70;99.90;;;;;;5070925;28;20518;-88
2022/10/07 06:46:03;;;;;;;;;;;9.90;99.90;;;;;;5083854;28;19977;-88
2022/10/07 06:48:31;;;;;;;;;;;10.10;99.90;;;;;;5087811;28;20265;-88
2022/10/07 06:50:58;;;;;;;;;;;10.30;99.90;;;;;;5102511;28;19991;-88
2022/10/07 06:53:24;;;;;;;;;;;10.30;99.90;;;;;;5075284;28;19942;-88
2022/10/07 06:55:50;;;;;;;;;;;10.30;99.90;;;;;;5066423;28;20435;-88
2022/10/07 06:58:16;;;;;;;;;;;10.40;99.90;;;;;;5089042;28;19931;-88
2022/10/07 07:00:46;;;;;;;;;;;10.50;99.90;;;;;;5084850;28;19915;-88
2022/10/07 07:03:12;;;;;;;;;;;10.50;99.90;;;;;;5089537;28;19908;-88
2022/10/07 07:05:38;;;;;;;;;;;10.60;99.90;;;;;;5061976;28;19904;-88
2022/10/07 07:08:04;;;;;;;;;;;10.60;99.90;;;;;;5076111;28;25116;-88
2022/10/07 07:10:42;;;;;;;;;;;10.60;99.90;;;;;;5081916;28;25144;-88
2022/10/07 07:13:10;;;;;;;;;;;10.70;99.90;;;;;;5066669;28;20531;-89
2022/10/07 07:15:36;;;;;;;;;;;10.80;99.90;;;;;;5080239;28;19916;-88
2022/10/07 07:18:03;;;;;;;;;;;11.00;99.90;;;;;;5083785;28;19982;-87
2022/10/07 07:20:34;;;;;;;;;;;11.10;99.90;;;;;;5079517;28;19915;-89
2022/10/07 07:23:00;;;;;;;;;;;11.30;99.90;;;;;;5068975;28;20362;-89
2022/10/07 07:25:27;;;;;;;;;;;11.40;99.90;;;;;;5073061;28;19912;-88
2022/10/07 07:27:54;;;;;;;;;;;11.50;99.90;;;;;;5080017;28;19911;-89
2022/10/07 07:30:22;;;;;;;;;;;11.60;99.90;;;;;;5085074;28;20505;-86
2022/10/07 07:32:49;;;;;;;;;;;11.80;99.90;;;;;;5071404;28;19912;-86
2022/10/07 07:35:15;;;;;;;;;;;12.00;99.90;;;;;;5084884;28;24068;-87
2022/10/07 07:37:41;;;;;;;;;;;12.30;99.90;;;;;;5089555;28;24134;-88
2022/10/07 07:40:33;;;;;;;;;;;12.50;99.90;;;;;;5073511;28;24059;-89
2022/10/07 07:42:59;;;;;;;;;;;12.70;99.90;;;;;;5109762;28;19966;-88
2022/10/07 07:45:24;;;;;;;;;;;12.90;99.90;;;;;;5114923;27;19912;-88
2022/10/07 07:47:51;;;;;;;;;;;13.00;99.90;;;;;;5088160;28;24100;-88
2022/10/07 07:50:19;;;;;;;;;;;13.10;99.90;;;;;;5066028;28;19966;-89
2022/10/07 07:52:45;;;;;;;;;;;13.20;99.90;;;;;;5104271;28;20267;-88
2022/10/07 07:55:11;;;;;;;;;;;13.20;99.90;;;;;;5066393;28;19919;-89
2022/10/07 07:57:37;;;;;;;;;;;13.30;99.90;;;;;;5086876;28;19915;-89
2022/10/07 08:00:06;;;;;;;;;;;13.20;99.90;;;;;;5076225;28;20345;-90
2022/10/07 08:02:39;;;;;;;;;;;13.20;99.90;;;;;;5077490;28;19908;-89
2022/10/07 08:05:07;;;;;;;;;;;13.10;99.90;;;;;;5081454;28;19908;-88
2022/10/07 08:07:34;;;;;;;;;;;13.10;99.90;;;;;;5072403;28;19999;-88
2022/10/07 08:10:01;;;;;;;;;;;13.20;99.90;;;;;;5085391;28;20014;-86
2022/10/07 08:12:27;;;;;;;;;;;13.40;99.90;;;;;;5099228;28;24061;-86
2022/10/07 08:18:23;;;;;;;;;;;14.00;99.90;;;;;;5085953;28;19915;-86
2022/10/07 08:20:59;;;;;;;;;;;14.30;99.90;;;;;;5077900;28;24069;-86
2022/10/07 08:23:28;;;;;;;;;;;14.40;99.90;;;;;;5061894;28;20031;-86
2022/10/07 08:25:58;;;;;;;;;;;14.40;99.90;;;;;;5086909;28;20379;-86
2022/10/07 08:28:25;;;;;;;;;;;14.40;99.90;;;;;;5065327;28;19959;-87
2022/10/07 08:30:53;;;;;;;;;;;14.60;99.90;;;;;;5091226;28;20411;-86
2022/10/07 08:33:19;;;;;;;;;;;14.70;99.90;;;;;;5086060;28;24857;-86
2022/10/07 08:35:58;;;;;;;;;;;14.60;99.90;;;;;;5091377;28;19914;-89
2022/10/07 08:38:24;;;;;;;;;;;14.60;99.90;;;;;;5075074;28;20027;-88
2022/10/07 08:40:50;;;;;;;;;;;14.70;99.90;;;;;;5078298;28;19904;-86
2022/10/07 08:43:19;;;;;;;;;;;14.80;99.90;;;;;;5072208;28;19977;-86
2022/10/07 08:45:44;;;;;;;;;;;14.80;99.90;;;;;;5085028;28;19909;-86
2022/10/07 08:48:15;;;;;;;;;;;14.90;99.90;;;;;;5075671;28;20032;-86
2022/10/07 08:50:48;;;;;;;;;;;15.00;99.90;;;;;;5085722;28;19913;-86
2022/10/07 08:53:19;;;;;;;;;;;15.10;99.90;;;;;;5077877;28;20050;-90
2022/10/07 08:55:51;;;;;;;;;;;15.30;99.90;;;;;;5069145;28;20066;-86
2022/10/07 08:58:31;;;;;;;;;;;15.50;99.90;;;;;;5091491;28;20141;-87
2022/10/07 09:01:16;;;;;;;;;;;15.80;99.90;;;;;;5086329;28;20093;-86
2022/10/07 09:07:26;;;;;;;8.70;3.00;;;15.70;99.90;;;;;;5090267;28;20095;-87
2022/10/07 09:09:56;;;;;;;12.60;3.80;;;15.90;99.90;;;;;;5072154;28;20181;-87
2022/10/07 09:12:42;;;;;;;;;;;16.00;99.90;;;;;;5088376;28;20130;-87
2022/10/07 09:15:18;;;;;;;17.90;5.30;;;16.20;99.90;;;;;;5117342;27;20129;-87
2022/10/07 09:17:58;;;;;;;6.60;3.20;;;16.70;99.90;;;;;;5070553;28;20046;-87
2022/10/07 09:20:31;;;;;;;9.70;3.90;;;17.50;99.90;;;;;;5075747;28;20275;-87
2022/10/07 09:22:59;;;;;;;7.00;2.60;;;18.20;99.90;;;;;;5072379;28;20055;-88
2022/10/07 09:25:29;;;;;;;;;;;18.60;99.90;;;;;;5093118;28;20064;-88
2022/10/07 09:27:55;;;;;;;;;;;18.50;99.90;;;;;;5082449;28;20050;-86
2022/10/07 09:30:41;;;;;;;;;;;18.20;99.90;;;;;;5088234;28;20051;-88
2022/10/07 09:33:19;;;;;;;;;;;18.50;99.90;;;;;;5075995;28;20047;-87
2022/10/07 09:36:10;;;;;;;;;;;19.50;99.90;;;;;;5091689;28;20047;-88
2022/10/07 09:38:37;;;;;;;;;;;19.90;99.90;;;;;;5078999;28;20144;-88
2022/10/07 09:41:14;;;;;;;;;;;20.40;99.90;;;;;;5095134;28;20027;-87
2022/10/07 09:43:53;;;;;;;;;;;20.20;99.90;;;;;;5086936;28;20142;-87
2022/10/07 09:46:34;;;;;;;;;;;19.40;99.90;;;;;;5104302;27;20038;-87
2022/10/07 09:49:03;;;;;;;;;;;19.10;99.90;;;;;;5090833;28;20051;-87
2022/10/07 09:51:30;;;;;;;;;;;19.10;99.90;;;;;;5080894;28;20505;-87
2022/10/07 09:53:57;;;;;;;;;;;19.40;99.90;;;;;;5091731;28;20053;-88
2022/10/07 09:56:37;;;;;;;;;;;19.80;99.90;;;;;;5087384;28;20056;-87
2022/10/07 09:59:12;;;;;;;;;;;19.80;99.90;;;;;;5063094;28;20035;-87
2022/10/07 10:01:56;;;;;;;;;;;19.80;99.90;;;;;;5123936;27;20500;-88
2022/10/07 10:04:33;;;;;;;;;;;19.80;99.90;;;;;;5059584;28;20039;-88
2022/10/07 10:07:16;;;;;;;;;;;19.40;99.90;;;;;;5093607;28;20043;-88
2022/10/07 10:09:52;;;;;;;;;;;19.30;99.90;;;;;;5086520;28;20042;-87
2022/10/07 10:12:18;;;;;;;;;;;19.40;99.90;;;;;;5085811;28;20037;-85
2022/10/07 10:14:48;;;;;;;;;;;19.70;99.90;;;;;;5079466;28;20588;-87
2022/10/07 10:17:26;;;;;;;;;;;19.50;99.90;;;;;;5104751;28;20035;-87
2022/10/07 10:19:52;;;;;;;;;;;19.60;99.90;;;;;;5089165;28;20391;-87
2022/10/07 10:22:25;;;;;;;;;;;19.90;99.90;;;;;;5084114;28;20046;-87
2022/10/07 10:27:52;;;;;;;;;;;20.00;99.90;;;;;;5080739;28;20158;-88
2022/10/07 10:30:21;;;;;;;;;;;20.50;99.90;;;;;;5085685;28;20043;-88
2022/10/07 10:33:06;;;;;;;;;;;20.40;99.90;;;;;;5063973;28;20498;-88
2022/10/07 10:35:35;;;;;;;;;;;21.00;99.90;;;;;;5090065;28;20481;-87
2022/10/07 10:38:14;;;;;;;;;;;21.00;99.90;;;;;;5088904;28;20046;-88
2022/10/07 10:40:46;;;;;;;;;;;20.40;99.90;;;;;;5107657;28;20072;-88
2022/10/07 10:43:19;;;;;;;;;;;20.20;99.90;;;;;;5078595;28;20121;-88
2022/10/07 10:46:03;;;;;;;;;;;20.10;99.90;;;;;;5083646;28;20047;-88
2022/10/07 10:48:39;;;;;;;;;;;20.30;99.90;;;;;;5073920;28;20047;-88
2022/10/07 10:51:27;;;;;;;;;;;20.40;99.90;;;;;;5092890;28;20111;-88
2022/10/07 10:53:52;;;;;;;;;;;20.60;99.90;;;;;;5074153;28;20132;-88
2022/10/07 10:56:22;;;;;;;;;;;20.90;99.90;;;;;;5103153;28;20069;-89
2022/10/07 10:59:00;;;;;;;;;;;21.10;99.90;;;;;;5106129;28;20488;-88
2022/10/07 11:01:33;;;;;;;;;;;20.50;99.90;;;;;;5091995;28;20399;-88
2022/10/07 11:04:07;;;;;;;;;;;20.60;99.90;;;;;;5089379;28;20044;-88
2022/10/07 11:06:35;;;;;;;;;;;21.10;99.90;;;;;;5106595;28;20490;-88
2022/10/07 11:09:01;;;;;;;;;;;21.10;99.90;;;;;;5065736;28;20050;-88
2022/10/07 11:11:27;;;;;;;;;;;21.20;99.90;;;;;;5081806;28;20363;-88
2022/10/07 11:14:00;;;;;;;;;;;20.90;99.90;;;;;;5089728;28;20106;-88
2022/10/07 11:16:45;;;;;;;;;;;20.70;99.90;;;;;;5083618;28;20043;-89
2022/10/07 11:19:22;;;;;;;;;;;20.60;99.90;;;;;;5070860;28;20600;-88
2022/10/07 11:24:59;;;;;;;;;;;21.50;99.90;;;;;;5091979;28;20098;-87
2022/10/07 11:27:28;;;;;;;;;;;21.90;99.90;;;;;;5073988;28;20046;-88
2022/10/07 11:29:57;;;;;;;;;;;21.30;99.90;;;;;;5085722;28;20070;-89
2022/10/07 11:32:29;;;;;;;;;;;20.90;99.90;;;;;;5072226;28;20046;-88
2022/10/07 11:35:13;;;;;;;;;;;20.90;99.90;;;;;;5084379;28;20414;-88
2022/10/07 11:37:41;;;;;;;;;;;21.60;99.90;;;;;;5064587;28;20066;-89
2022/10/07 11:40:07;;;;;;;;;;;22.20;99.90;;;;;;5086857;28;20122;-88
2022/10/07 11:42:39;;;;;;;;;;;22.70;99.90;;;;;;5073681;28;20519;-88
2022/10/07 11:45:16;;;;;;;;;;;22.50;99.90;;;;;;5098813;28;20119;-88
2022/10/07 11:47:51;;;;;;;;;;;22.60;99.90;;;;;;5104714;28;20035;-88
2022/10/07 11:50:22;;;;;;;;;;;22.60;99.90;;;;;;5066998;28;20619;-88
2022/10/07 11:52:49;;;;;;;;;;;22.20;99.90;;;;;;5089958;28;20043;-88
2022/10/07 11:55:18;;;;;;;;;;;22.10;99.90;;;;;;5084999;28;20070;-88
2022/10/07 11:57:49;;;;;;;;;;;21.60;99.90;;;;;;5075908;28;20039;-88
2022/10/07 12:00:25;;;;;;;;;;;21.30;99.90;;;;;;5081704;28;20098;-88
2022/10/07 12:02:52;;;;;;;;;;;20.50;99.90;;;;;;5087486;28;20161;-87
2022/10/07 12:05:33;;;;;;;;;;;20.20;99.90;;;;;;5069785;28;20083;-88
2022/10/07 12:08:01;;;;;;;;;;;20.50;99.90;;;;;;5078518;28;20053;-87
2022/10/07 12:10:28;;;;;;;;;;;20.50;99.90;;;;;;5087952;28;20047;-87
2022/10/07 12:12:58;;;;;;;;;;;20.60;99.90;;;;;;5098610;28;21276;-88
2022/10/07 12:15:31;;;;;;;;;;;20.50;99.90;;;;;;5070913;28;20043;-88
2022/10/07 12:18:00;;;;;;;;;;;20.20;99.90;;;;;;5059609;28;20043;-89
2022/10/07 12:20:32;;;;;;;;;;;20.10;99.90;;;;;;5082197;28;20098;-89
2022/10/07 12:23:21;;;;;;;;;;;20.30;99.90;;;;;;5086107;28;20040;-89
2022/10/07 12:29:29;;;;;;;;;;;20.90;99.90;;;;;;5080695;28;20046;-88
2022/10/07 12:31:55;;;;;;;;;;;21.00;99.90;;;;;;5069695;28;20040;-89
2022/10/07 12:34:26;;;;;;;;;;;21.20;99.90;;;;;;5102092;28;20047;-88
2022/10/07 12:36:52;;;;;;;;;;;21.40;99.90;;;;;;5089472;28;20044;-88
2022/10/07 12:39:44;;;;;;;;;;;21.60;99.90;;;;;;5120001;28;20043;-88
2022/10/07 12:42:10;;;;;;;;;;;21.30;99.90;;;;;;5074718;28;20058;-89
2022/10/07 12:44:39;;;;;;;;;;;20.70;99.90;;;;;;5080615;28;20044;-88
2022/10/07 12:47:10;;;;;;;;;;;20.60;99.90;;;;;;5072098;28;20131;-89
2022/10/07 12:49:44;;;;;;;;;;;20.40;99.90;;;;;;5101126;28;20074;-89
2022/10/07 12:52:10;;;;;;;;;;;20.50;99.90;;;;;;5083510;28;20043;-88
2022/10/07 12:54:48;;;;;;;;;;;20.50;99.90;;;;;;5067391;28;20044;-88
2022/10/07 12:57:18;;;;;;;;;;;20.60;99.90;;;;;;5070079;28;20031;-89
2022/10/07 12:59:47;;;;;;;;;;;20.60;99.90;;;;;;5082420;28;20094;-88
2022/10/07 13:02:27;;;;;;;12.80;4.30;;;20.30;99.90;;;;;;5073882;28;20038;-89
2022/10/07 13:05:14;;;;;;;69.75;39.85;;;19.70;99.90;;;;;;5085592;28;19934;-88
2022/10/07 13:07:52;;;;;;;86.03;39.60;;;19.40;99.90;;;;;;5072119;28;20074;-88
2022/10/07 13:10:34;;;;;;;21.55;8.65;;;19.30;99.90;;;;;;5088235;28;20101;-88
2022/10/07 13:13:27;;;;;;;8.55;4.50;;;19.20;99.90;;;;;;5065301;28;20136;-88
2022/10/07 13:16:02;;;;;;;10.15;4.25;;;19.30;99.90;;;;;;5072721;28;20055;-89
2022/10/07 13:18:43;;;;;;;14.00;4.53;;;19.50;99.90;;;;;;5089496;28;20036;-88
2022/10/07 13:21:28;;;;;;;10.80;4.80;;;19.60;99.90;;;;;;5076956;28;19908;-89
2022/10/07 13:23:55;;;;;;;17.87;5.33;;;19.30;99.90;;;;;;5110463;28;20060;-88
2022/10/07 13:26:23;;;;;;;10.80;5.35;;;19.00;99.90;;;;;;5089128;28;19912;-88
2022/10/07 13:28:55;;;;;;;9.05;6.40;;;18.70;99.90;;;;;;5084892;28;20093;-89
2022/10/07 13:31:26;;;;;;;10.90;5.10;;;18.30;99.90;;;;;;5073595;28;20074;-88
2022/10/07 13:33:56;;;;;;;14.20;5.20;;;18.20;99.90;;;;;;5086321;28;20036;-89
2022/10/07 13:36:25;;;;;;;9.60;4.90;;;18.20;99.90;;;;;;5092428;28;20520;-89
2022/10/07 13:38:52;;;;;;;;;;;18.20;99.90;;;;;;5087241;28;20051;-88
2022/10/07 13:41:28;;;;;;;;;;;18.20;99.90;;;;;;5077843;28;20047;-87
2022/10/07 13:44:01;;;;;;;10.10;5.60;;;18.00;99.90;;;;;;5088582;28;20384;-89
2022/10/07 13:46:30;;;;;;;16.00;7.60;;;17.80;99.90;;;;;;5077985;28;20530;-88
2022/10/07 13:48:57;;;;;;;8.90;5.30;;;17.60;99.90;;;;;;5089745;28;20580;-89
2022/10/07 13:51:44;;;;;;;14.40;5.50;;;17.40;99.90;;;;;;5071203;28;20050;-87
2022/10/07 13:54:22;;;;;;;12.90;5.65;;;17.30;99.90;;;;;;5088946;28;20039;-87
2022/10/07 13:56:50;;;;;;;12.93;5.30;;;17.40;99.90;;;;;;5090910;28;20480;-88
2022/10/07 13:59:18;;;;;;;12.52;5.35;;;17.40;99.90;;;;;;5069695;28;20472;-86
2022/10/07 14:01:52;;;;;;;13.80;5.90;;;17.40;99.90;;;;;;5091031;28;20064;-88
2022/10/07 14:04:27;;;;;;;11.73;5.00;;;17.30;99.90;;;;;;5070521;28;19908;-88
2022/10/07 14:07:12;;;;;;;16.60;5.33;;;17.30;99.90;;;;;;5093079;28;20040;-88
2022/10/07 14:09:57;;;;;;;14.00;7.00;;;17.30;99.90;;;;;;5086353;28;20025;-88
2022/10/07 14:12:31;;;;;;;17.20;10.70;;;17.20;99.90;;;;;;5072165;28;20035;-87
2022/10/07 14:15:20;;;;;;;15.40;6.40;;;17.20;99.90;;;;;;5073173;28;20128;-87
2022/10/07 14:17:50;;;;;;;223.10;101.60;;;17.30;99.90;;;;;;5068257;28;20511;-88
2022/10/07 14:20:16;;;;;;;57.00;30.45;;;17.20;99.90;;;;;;5074315;28;20024;-88
2022/10/07 14:22:46;;;;;;;16.75;9.40;;;17.20;99.90;;;;;;5070734;28;20032;-87
2022/10/07 14:25:21;;;;;;;16.40;10.70;;;17.30;99.90;;;;;;5091253;28;20080;-89
2022/10/07 14:27:52;;;;;;;18.15;7.10;;;17.20;99.90;;;;;;5069070;28;19942;-87
2022/10/07 14:30:25;;;;;;;;;;;17.00;99.90;;;;;;5069682;28;20321;-88
2022/10/07 14:36:30;;;;;;;17.10;9.13;;;17.00;99.90;;;;;;5092498;28;20490;-87
2022/10/07 14:38:58;;;;;;;11.23;6.47;;;17.10;99.90;;;;;;5058320;28;20080;-88
2022/10/07 14:41:27;;;;;;;19.73;10.55;;;17.10;99.90;;;;;;5076081;28;20448;-88
2022/10/07 14:43:57;;;;;;;12.07;7.83;;;17.10;99.90;;;;;;5086962;28;20185;-89
2022/10/07 14:46:24;;;;;;;14.02;5.97;;;17.10;99.90;;;;;;5069410;28;20035;-87
2022/10/07 14:48:51;;;;;;;7.70;5.00;;;17.40;99.90;;;;;;5070688;28;20111;-87
2022/10/07 14:51:24;;;;;;;17.00;7.63;;;17.80;99.90;;;;;;5081752;28;20493;-89